sensor_id;sensor_type;location;lat;lon;timestamp;pressure;altitude;pressure_sealevel;temperature;humidity
43119;BME280;28729;49.838;8.650;2023-04-10T00:01:55;100412.34;;;6.95;74.86
43119;BME280;28729;49.838;8.650;2023-04-10T00:05:57;100421.84;;;6.92;75.31
43119;BME280;28729;49.838;8.650;2023-04-10T00:09:59;100424.16;;;6.89;76.07
43119;BME280;28729;49.838;8.650;2023-04-10T00:14:00;100435.53;;;6.85;76.70
43119;BME280;28729;49.838;8.650;2023-04-10T00:18:02;100433.84;;;6.78;78.07
43119;BME280;28729;49.838;8.650;2023-04-10T00:22:04;100435.94;;;6.69;78.66
43119;BME280;28729;49.838;8.650;2023-04-10T00:26:06;100426.69;;;6.64;79.21
43119;BME280;28729;49.838;8.650;2023-04-10T00:30:08;100429.84;;;6.60;79.53
43119;BME280;28729;49.838;8.650;2023-04-10T00:34:09;100433.63;;;6.59;79.80
43119;BME280;28729;49.838;8.650;2023-04-10T00:38:12;100436.16;;;6.61;79.34
43119;BME280;28729;49.838;8.650;2023-04-10T00:42:14;100428.56;;;6.63;78.86
43119;BME280;28729;49.838;8.650;2023-04-10T00:46:16;100427.31;;;6.66;78.72
43119;BME280;28729;49.838;8.650;2023-04-10T00:50:19;100426.03;;;6.68;78.66
43119;BME280;28729;49.838;8.650;2023-04-10T00:54:22;100422.25;;;6.69;78.70
43119;BME280;28729;49.838;8.650;2023-04-10T00:58:26;100421.84;;;6.72;78.76
43119;BME280;28729;49.838;8.650;2023-04-10T01:02:27;100416.56;;;6.71;78.88
43119;BME280;28729;49.838;8.650;2023-04-10T01:06:52;100419.09;;;6.72;79.26
43119;BME280;28729;49.838;8.650;2023-04-10T01:11:08;100421.22;;;6.70;79.67
43119;BME280;28729;49.838;8.650;2023-04-10T01:15:21;100419.72;;;6.68;80.39
43119;BME280;28729;49.838;8.650;2023-04-10T01:19:55;100428.34;;;6.65;81.48
43119;BME280;28729;49.838;8.650;2023-04-10T01:24:17;100426.03;;;6.61;81.67
43119;BME280;28729;49.838;8.650;2023-04-10T01:32:29;100428.34;;;6.58;81.24
43119;BME280;28729;49.838;8.650;2023-04-10T01:36:50;100430.88;;;6.59;81.41
43119;BME280;28729;49.838;8.650;2023-04-10T01:40:54;100428.78;;;6.61;80.72
43119;BME280;28729;49.838;8.650;2023-04-10T01:45:03;100436.16;;;6.61;81.38
43119;BME280;28729;49.838;8.650;2023-04-10T01:49:07;100432.78;;;6.66;81.82
43119;BME280;28729;49.838;8.650;2023-04-10T01:53:09;100432.53;;;6.54;82.52
43119;BME280;28729;49.838;8.650;2023-04-10T01:57:11;100419.50;;;6.56;82.04
43119;BME280;28729;49.838;8.650;2023-04-10T02:01:25;100414.66;;;6.58;82.00
43119;BME280;28729;49.838;8.650;2023-04-10T02:10:12;100403.72;;;6.58;82.06
43119;BME280;28729;49.838;8.650;2023-04-10T02:14:17;100403.31;;;6.54;82.84
43119;BME280;28729;49.838;8.650;2023-04-10T02:18:21;100396.94;;;6.54;82.96
43119;BME280;28729;49.838;8.650;2023-04-10T02:22:23;100388.97;;;6.52;83.14
43119;BME280;28729;49.838;8.650;2023-04-10T02:26:26;100386.41;;;6.51;83.65
43119;BME280;28729;49.838;8.650;2023-04-10T02:30:27;100387.25;;;6.51;83.34
43119;BME280;28729;49.838;8.650;2023-04-10T02:34:29;100380.34;;;6.49;83.85
43119;BME280;28729;49.838;8.650;2023-04-10T02:38:32;100381.38;;;6.48;84.12
43119;BME280;28729;49.838;8.650;2023-04-10T02:42:34;100383.69;;;6.44;84.38
43119;BME280;28729;49.838;8.650;2023-04-10T02:46:36;100384.31;;;6.39;85.33
43119;BME280;28729;49.838;8.650;2023-04-10T02:50:39;100383.03;;;6.35;85.46
43119;BME280;28729;49.838;8.650;2023-04-10T02:54:47;100388.28;;;6.30;85.55
43119;BME280;28729;49.838;8.650;2023-04-10T02:58:49;100381.56;;;6.26;85.80
43119;BME280;28729;49.838;8.650;2023-04-10T03:02:51;100380.47;;;6.21;86.53
43119;BME280;28729;49.838;8.650;2023-04-10T03:06:55;100379.41;;;6.15;86.99
43119;BME280;28729;49.838;8.650;2023-04-10T03:10:57;100368.28;;;6.10;87.26
43119;BME280;28729;49.838;8.650;2023-04-10T03:14:59;100366.13;;;6.05;87.53
43119;BME280;28729;49.838;8.650;2023-04-10T03:19:01;100356.44;;;6.03;87.82
43119;BME280;28729;49.838;8.650;2023-04-10T03:23:04;100360.25;;;6.02;87.94
43119;BME280;28729;49.838;8.650;2023-04-10T03:27:06;100347.59;;;6.01;88.30
43119;BME280;28729;49.838;8.650;2023-04-10T03:31:08;100347.59;;;6.01;88.42
43119;BME280;28729;49.838;8.650;2023-04-10T03:35:12;100348.66;;;6.00;88.79
43119;BME280;28729;49.838;8.650;2023-04-10T03:39:14;100342.13;;;6.01;88.88
43119;BME280;28729;49.838;8.650;2023-04-10T03:43:16;100344.88;;;6.01;88.70
43119;BME280;28729;49.838;8.650;2023-04-10T03:47:18;100343.00;;;6.01;88.80
43119;BME280;28729;49.838;8.650;2023-04-10T03:51:23;100341.28;;;6.00;88.72
43119;BME280;28729;49.838;8.650;2023-04-10T03:55:25;100335.19;;;5.98;89.33
43119;BME280;28729;49.838;8.650;2023-04-10T03:59:28;100338.53;;;5.93;89.98
43119;BME280;28729;49.838;8.650;2023-04-10T04:03:43;100353.25;;;5.92;89.67
43119;BME280;28729;49.838;8.650;2023-04-10T04:08:00;100345.66;;;5.88;90.35
43119;BME280;28729;49.838;8.650;2023-04-10T04:12:28;100336.19;;;5.84;90.88
43119;BME280;28729;49.838;8.650;2023-04-10T04:16:47;100339.09;;;5.82;91.32
43119;BME280;28729;49.838;8.650;2023-04-10T04:21:21;100333.22;;;5.79;90.83
43119;BME280;28729;49.838;8.650;2023-04-10T04:25:39;100337.19;;;5.76;91.34
43119;BME280;28729;49.838;8.650;2023-04-10T04:30:15;100340.34;;;5.73;91.63
43119;BME280;28729;49.838;8.650;2023-04-10T04:34:37;100338.66;;;5.72;91.38
43119;BME280;28729;49.838;8.650;2023-04-10T04:38:54;100341.41;;;5.72;91.59
43119;BME280;28729;49.838;8.650;2023-04-10T04:42:58;100344.13;;;5.72;91.85
43119;BME280;28729;49.838;8.650;2023-04-10T04:47:27;100343.91;;;5.74;91.43
43119;BME280;28729;49.838;8.650;2023-04-10T04:51:46;100351.94;;;5.75;91.75
43119;BME280;28729;49.838;8.650;2023-04-10T04:56:13;100347.94;;;5.78;91.30
43119;BME280;28729;49.838;8.650;2023-04-10T05:00:17;100359.31;;;5.81;91.25
43119;BME280;28729;49.838;8.650;2023-04-10T05:04:45;100351.34;;;5.86;91.62
43119;BME280;28729;49.838;8.650;2023-04-10T05:09:09;100344.19;;;5.92;91.35
43119;BME280;28729;49.838;8.650;2023-04-10T05:13:35;100344.44;;;5.97;91.60
43119;BME280;28729;49.838;8.650;2023-04-10T05:17:47;100342.16;;;6.07;91.70
43119;BME280;28729;49.838;8.650;2023-04-10T05:22:09;100351.84;;;6.16;91.50
43119;BME280;28729;49.838;8.650;2023-04-10T05:26:25;100349.34;;;6.28;91.24
43119;BME280;28729;49.838;8.650;2023-04-10T05:30:40;100347.03;;;6.38;91.26
43119;BME280;28729;49.838;8.650;2023-04-10T05:35:00;100351.88;;;6.50;91.30
43119;BME280;28729;49.838;8.650;2023-04-10T05:39:07;100356.09;;;6.59;90.99
43119;BME280;28729;49.838;8.650;2023-04-10T05:43:26;100348.72;;;6.66;90.86
43119;BME280;28729;49.838;8.650;2023-04-10T05:47:43;100366.63;;;6.62;91.19
43119;BME280;28729;49.838;8.650;2023-04-10T05:52:01;100368.72;;;6.60;91.50
43119;BME280;28729;49.838;8.650;2023-04-10T05:56:12;100366.41;;;6.57;92.15
43119;BME280;28729;49.838;8.650;2023-04-10T06:00:18;100376.75;;;6.61;93.35
43119;BME280;28729;49.838;8.650;2023-04-10T06:04:40;100363.47;;;6.72;93.33
43119;BME280;28729;49.838;8.650;2023-04-10T06:08:43;100366.00;;;6.80;93.40
43119;BME280;28729;49.838;8.650;2023-04-10T06:12:44;100366.19;;;6.92;93.16
43119;BME280;28729;49.838;8.650;2023-04-10T06:16:47;100360.09;;;7.03;92.23
43119;BME280;28729;49.838;8.650;2023-04-10T06:20:50;100355.41;;;7.23;90.69
43119;BME280;28729;49.838;8.650;2023-04-10T06:24:53;100356.00;;;7.39;90.90
43119;BME280;28729;49.838;8.650;2023-04-10T06:28:55;100358.69;;;7.45;91.44
43119;BME280;28729;49.838;8.650;2023-04-10T06:32:58;100344.97;;;7.52;90.93
43119;BME280;28729;49.838;8.650;2023-04-10T06:37:05;100346.59;;;7.66;90.68
43119;BME280;28729;49.838;8.650;2023-04-10T06:41:09;100341.66;;;7.82;90.21
43119;BME280;28729;49.838;8.650;2023-04-10T06:45:12;100347.69;;;7.97;88.59
43119;BME280;28729;49.838;8.650;2023-04-10T06:49:13;100340.63;;;8.14;87.71
43119;BME280;28729;49.838;8.650;2023-04-10T06:53:15;100344.09;;;8.35;86.25
43119;BME280;28729;49.838;8.650;2023-04-10T06:57:17;100341.78;;;8.63;84.44
43119;BME280;28729;49.838;8.650;2023-04-10T07:01:20;100352.09;;;8.93;82.33
43119;BME280;28729;49.838;8.650;2023-04-10T07:05:22;100349.09;;;9.20;81.85
43119;BME280;28729;49.838;8.650;2023-04-10T07:09:24;100342.06;;;9.42;81.10
43119;BME280;28729;49.838;8.650;2023-04-10T07:13:26;100337.69;;;9.71;79.43
43119;BME280;28729;49.838;8.650;2023-04-10T07:17:29;100334.59;;;9.98;77.39
43119;BME280;28729;49.838;8.650;2023-04-10T07:21:31;100335.03;;;10.25;73.95
43119;BME280;28729;49.838;8.650;2023-04-10T07:25:33;100340.31;;;10.57;73.91
43119;BME280;28729;49.838;8.650;2023-04-10T07:29:36;100335.19;;;10.84;71.69
43119;BME280;28729;49.838;8.650;2023-04-10T07:33:37;100327.03;;;11.12;70.07
43119;BME280;28729;49.838;8.650;2023-04-10T07:37:39;100326.28;;;11.40;69.46
43119;BME280;28729;49.838;8.650;2023-04-10T07:41:44;100317.34;;;11.62;67.91
43119;BME280;28729;49.838;8.650;2023-04-10T07:45:46;100319.81;;;11.75;67.36
43119;BME280;28729;49.838;8.650;2023-04-10T07:49:48;100320.72;;;11.93;62.96
43119;BME280;28729;49.838;8.650;2023-04-10T07:53:50;100317.81;;;12.28;63.59
43119;BME280;28729;49.838;8.650;2023-04-10T07:57:52;100325.72;;;12.70;63.11
43119;BME280;28729;49.838;8.650;2023-04-10T08:01:54;100320.91;;;12.99;61.55
43119;BME280;28729;49.838;8.650;2023-04-10T08:05:56;100315.44;;;13.21;60.87
43119;BME280;28729;49.838;8.650;2023-04-10T08:09:58;100305.78;;;13.40;60.02
43119;BME280;28729;49.838;8.650;2023-04-10T08:14:01;100303.84;;;13.63;59.44
43119;BME280;28729;49.838;8.650;2023-04-10T08:18:04;100300.16;;;13.79;55.72
43119;BME280;28729;49.838;8.650;2023-04-10T08:22:06;100297.84;;;13.93;48.01
43119;BME280;28729;49.838;8.650;2023-04-10T08:26:07;100298.00;;;14.08;46.55
43119;BME280;28729;49.838;8.650;2023-04-10T08:30:10;100284.34;;;14.29;45.18
43119;BME280;28729;49.838;8.650;2023-04-10T08:34:14;100280.72;;;14.55;47.05
43119;BME280;28729;49.838;8.650;2023-04-10T08:38:16;100273.69;;;14.80;43.99
43119;BME280;28729;49.838;8.650;2023-04-10T08:42:18;100276.59;;;15.00;44.32
43119;BME280;28729;49.838;8.650;2023-04-10T08:46:22;100273.38;;;15.19;44.46
43119;BME280;28729;49.838;8.650;2023-04-10T08:50:24;100268.72;;;15.30;43.17
43119;BME280;28729;49.838;8.650;2023-04-10T08:54:32;100255.78;;;15.50;42.75
43119;BME280;28729;49.838;8.650;2023-04-10T08:58:35;100260.25;;;15.67;41.75
43119;BME280;28729;49.838;8.650;2023-04-10T09:02:38;100260.91;;;15.84;40.56
43119;BME280;28729;49.838;8.650;2023-04-10T09:06:43;100253.69;;;15.93;39.94
43119;BME280;28729;49.838;8.650;2023-04-10T09:10:45;100243.72;;;16.18;39.72
43119;BME280;28729;49.838;8.650;2023-04-10T09:14:46;100243.75;;;16.49;39.23
43119;BME280;28729;49.838;8.650;2023-04-10T09:18:53;100235.38;;;16.74;39.21
43119;BME280;28729;49.838;8.650;2023-04-10T09:22:56;100218.69;;;16.84;37.60
43119;BME280;28729;49.838;8.650;2023-04-10T09:27:00;100209.47;;;17.04;37.87
43119;BME280;28729;49.838;8.650;2023-04-10T09:31:35;100209.94;;;17.27;37.37
43119;BME280;28729;49.838;8.650;2023-04-10T09:35:37;100202.31;;;17.48;37.70
43119;BME280;28729;49.838;8.650;2023-04-10T09:39:39;100203.91;;;17.64;35.55
43119;BME280;28729;49.838;8.650;2023-04-10T09:43:43;100195.28;;;18.05;35.79
43119;BME280;28729;49.838;8.650;2023-04-10T09:52:23;100187.56;;;18.31;34.01
43119;BME280;28729;49.838;8.650;2023-04-10T09:56:29;100178.19;;;18.17;34.20
43119;BME280;28729;49.838;8.650;2023-04-10T10:04:39;100164.13;;;18.61;34.24
43119;BME280;28729;49.838;8.650;2023-04-10T10:08:43;100154.78;;;18.76;33.23
43119;BME280;28729;49.838;8.650;2023-04-10T10:12:56;100142.88;;;18.65;32.54
43119;BME280;28729;49.838;8.650;2023-04-10T10:17:01;100145.88;;;18.45;33.09
43119;BME280;28729;49.838;8.650;2023-04-10T10:21:08;100145.06;;;18.68;32.57
43119;BME280;28729;49.838;8.650;2023-04-10T10:25:11;100127.00;;;18.90;32.93
43119;BME280;28729;49.838;8.650;2023-04-10T10:29:14;100132.72;;;19.23;32.36
43119;BME280;28729;49.838;8.650;2023-04-10T10:33:17;100128.78;;;19.24;31.23
43119;BME280;28729;49.838;8.650;2023-04-10T10:37:20;100124.94;;;19.39;32.18
43119;BME280;28729;49.838;8.650;2023-04-10T10:41:34;100111.81;;;19.58;31.17
43119;BME280;28729;49.838;8.650;2023-04-10T10:49:59;100106.34;;;20.04;31.12
43119;BME280;28729;49.838;8.650;2023-04-10T10:54:01;100084.94;;;20.14;29.57
43119;BME280;28729;49.838;8.650;2023-04-10T10:58:08;100090.56;;;20.27;30.41
43119;BME280;28729;49.838;8.650;2023-04-10T11:02:17;100092.78;;;20.58;29.14
43119;BME280;28729;49.838;8.650;2023-04-10T11:15:03;100080.94;;;20.47;28.83
43119;BME280;28729;49.838;8.650;2023-04-10T11:19:07;100065.31;;;20.46;27.82
43119;BME280;28729;49.838;8.650;2023-04-10T11:23:12;100054.88;;;20.80;28.26
43119;BME280;28729;49.838;8.650;2023-04-10T11:27:51;100035.41;;;21.11;27.49
43119;BME280;28729;49.838;8.650;2023-04-10T11:31:58;100025.63;;;21.36;28.30
43119;BME280;28729;49.838;8.650;2023-04-10T11:36:02;100030.22;;;21.54;26.88
43119;BME280;28729;49.838;8.650;2023-04-10T11:40:05;100017.78;;;21.69;26.55
43119;BME280;28729;49.838;8.650;2023-04-10T11:44:09;100013.06;;;22.10;26.70
43119;BME280;28729;49.838;8.650;2023-04-10T11:48:11;100021.22;;;22.51;26.66
43119;BME280;28729;49.838;8.650;2023-04-10T11:52:23;100012.97;;;23.03;24.59
43119;BME280;28729;49.838;8.650;2023-04-10T11:56:25;100009.81;;;23.05;24.09
43119;BME280;28729;49.838;8.650;2023-04-10T12:00:27;100003.16;;;22.83;24.44
43119;BME280;28729;49.838;8.650;2023-04-10T12:04:29;99995.63;;;23.10;24.63
43119;BME280;28729;49.838;8.650;2023-04-10T12:08:37;99985.22;;;23.28;25.79
43119;BME280;28729;49.838;8.650;2023-04-10T12:12:39;99989.81;;;23.67;25.21
43119;BME280;28729;49.838;8.650;2023-04-10T12:16:43;99980.22;;;23.68;24.92
43119;BME280;28729;49.838;8.650;2023-04-10T12:20:47;99982.41;;;23.45;25.53
43119;BME280;28729;49.838;8.650;2023-04-10T12:24:52;99963.69;;;23.58;25.45
43119;BME280;28729;49.838;8.650;2023-04-10T12:28:55;99964.03;;;23.74;24.52
43119;BME280;28729;49.838;8.650;2023-04-10T12:32:58;99959.22;;;23.48;24.62
43119;BME280;28729;49.838;8.650;2023-04-10T12:37:07;99970.13;;;23.50;24.41
43119;BME280;28729;49.838;8.650;2023-04-10T12:41:10;99956.81;;;24.02;24.41
43119;BME280;28729;49.838;8.650;2023-04-10T12:45:13;99946.75;;;24.69;23.42
43119;BME280;28729;49.838;8.650;2023-04-10T12:49:16;99936.66;;;24.89;24.69
43119;BME280;28729;49.838;8.650;2023-04-10T12:53:19;99927.44;;;24.80;24.79
43119;BME280;28729;49.838;8.650;2023-04-10T12:57:27;99929.22;;;24.64;24.50
43119;BME280;28729;49.838;8.650;2023-04-10T13:01:29;99931.06;;;24.81;24.69
43119;BME280;28729;49.838;8.650;2023-04-10T13:05:32;99927.38;;;24.89;24.83
43119;BME280;28729;49.838;8.650;2023-04-10T13:09:34;99909.44;;;24.72;25.52
43119;BME280;28729;49.838;8.650;2023-04-10T13:13:36;99909.75;;;24.50;24.99
43119;BME280;28729;49.838;8.650;2023-04-10T13:17:38;99905.38;;;24.23;24.34
43119;BME280;28729;49.838;8.650;2023-04-10T13:21:43;99896.41;;;23.91;23.68
43119;BME280;28729;49.838;8.650;2023-04-10T13:25:44;99882.38;;;24.21;24.70
43119;BME280;28729;49.838;8.650;2023-04-10T13:29:47;99878.19;;;24.27;24.45
43119;BME280;28729;49.838;8.650;2023-04-10T13:33:50;99882.63;;;24.45;24.87
43119;BME280;28729;49.838;8.650;2023-04-10T13:37:52;99873.19;;;24.32;25.58
43119;BME280;28729;49.838;8.650;2023-04-10T13:41:54;99863.03;;;24.19;25.11
43119;BME280;28729;49.838;8.650;2023-04-10T13:45:57;99871.38;;;24.37;25.40
43119;BME280;28729;49.838;8.650;2023-04-10T13:49:59;99853.06;;;24.22;24.58
43119;BME280;28729;49.838;8.650;2023-04-10T13:54:02;99846.84;;;24.37;24.20
43119;BME280;28729;49.838;8.650;2023-04-10T13:58:09;99839.81;;;23.93;23.87
43119;BME280;28729;49.838;8.650;2023-04-10T14:02:12;99845.38;;;23.72;23.85
43119;BME280;28729;49.838;8.650;2023-04-10T14:06:14;99837.13;;;23.49;24.29
43119;BME280;28729;49.838;8.650;2023-04-10T14:10:16;99825.31;;;23.73;24.20
43119;BME280;28729;49.838;8.650;2023-04-10T14:14:20;99823.00;;;23.66;24.61
43119;BME280;28729;49.838;8.650;2023-04-10T14:18:22;99810.09;;;23.18;24.11
43119;BME280;28729;49.838;8.650;2023-04-10T14:22:23;99806.47;;;22.92;24.18
43119;BME280;28729;49.838;8.650;2023-04-10T14:26:25;99800.88;;;22.57;24.89
43119;BME280;28729;49.838;8.650;2023-04-10T14:30:28;99796.94;;;22.58;24.61
43119;BME280;28729;49.838;8.650;2023-04-10T14:34:31;99788.47;;;22.93;24.53
43119;BME280;28729;49.838;8.650;2023-04-10T14:38:33;99790.97;;;23.03;24.03
43119;BME280;28729;49.838;8.650;2023-04-10T14:42:37;99768.84;;;23.40;23.86
43119;BME280;28729;49.838;8.650;2023-04-10T14:46:39;99768.06;;;23.31;23.82
43119;BME280;28729;49.838;8.650;2023-04-10T14:50:41;99764.13;;;23.23;23.98
43119;BME280;28729;49.838;8.650;2023-04-10T14:54:44;99743.34;;;22.89;23.90
43119;BME280;28729;49.838;8.650;2023-04-10T14:58:47;99739.94;;;22.32;23.93
43119;BME280;28729;49.838;8.650;2023-04-10T15:02:49;99740.88;;;22.01;24.33
43119;BME280;28729;49.838;8.650;2023-04-10T15:06:52;99730.13;;;21.85;24.33
43119;BME280;28729;49.838;8.650;2023-04-10T15:10:54;99716.03;;;21.51;24.59
43119;BME280;28729;49.838;8.650;2023-04-10T15:14:56;99701.91;;;21.25;25.19
43119;BME280;28729;49.838;8.650;2023-04-10T15:18:57;99696.50;;;20.97;25.09
43119;BME280;28729;49.838;8.650;2023-04-10T15:22:59;99690.66;;;20.85;25.77
43119;BME280;28729;49.838;8.650;2023-04-10T15:27:03;99696.66;;;20.69;25.49
43119;BME280;28729;49.838;8.650;2023-04-10T15:31:05;99686.09;;;20.66;25.81
43119;BME280;28729;49.838;8.650;2023-04-10T15:35:08;99679.69;;;20.66;26.25
43119;BME280;28729;49.838;8.650;2023-04-10T15:39:11;99688.38;;;20.56;26.11
43119;BME280;28729;49.838;8.650;2023-04-10T15:43:12;99668.59;;;20.61;26.28
43119;BME280;28729;49.838;8.650;2023-04-10T15:47:14;99662.19;;;20.60;26.06
43119;BME280;28729;49.838;8.650;2023-04-10T15:51:18;99661.59;;;20.72;26.40
43119;BME280;28729;49.838;8.650;2023-04-10T15:55:21;99631.56;;;20.64;25.82
43119;BME280;28729;49.838;8.650;2023-04-10T15:59:24;99613.03;;;20.77;26.44
43119;BME280;28729;49.838;8.650;2023-04-10T16:03:26;99623.25;;;20.81;26.08
43119;BME280;28729;49.838;8.650;2023-04-10T16:07:30;99607.88;;;20.70;26.08
43119;BME280;28729;49.838;8.650;2023-04-10T16:11:32;99594.53;;;21.07;25.97
43119;BME280;28729;49.838;8.650;2023-04-10T16:15:35;99579.53;;;21.11;25.59
43119;BME280;28729;49.838;8.650;2023-04-10T16:19:38;99586.66;;;20.69;25.94
43119;BME280;28729;49.838;8.650;2023-04-10T16:23:40;99595.63;;;20.26;26.62
43119;BME280;28729;49.838;8.650;2023-04-10T16:27:42;99601.84;;;20.00;26.75
43119;BME280;28729;49.838;8.650;2023-04-10T16:31:44;99595.94;;;19.79;27.44
43119;BME280;28729;49.838;8.650;2023-04-10T16:35:49;99608.00;;;19.52;27.59
43119;BME280;28729;49.838;8.650;2023-04-10T16:39:51;99608.25;;;19.28;27.41
43119;BME280;28729;49.838;8.650;2023-04-10T16:43:52;99604.34;;;19.02;27.92
43119;BME280;28729;49.838;8.650;2023-04-10T16:47:54;99598.34;;;18.81;28.83
43119;BME280;28729;49.838;8.650;2023-04-10T16:51:56;99601.09;;;18.67;29.80
43119;BME280;28729;49.838;8.650;2023-04-10T16:55:58;99580.00;;;18.61;30.71
43119;BME280;28729;49.838;8.650;2023-04-10T17:00:05;99576.59;;;18.64;30.88
43119;BME280;28729;49.838;8.650;2023-04-10T17:04:07;99568.56;;;18.62;31.38
43119;BME280;28729;49.838;8.650;2023-04-10T17:08:13;99562.66;;;18.50;31.99
43119;BME280;28729;49.838;8.650;2023-04-10T17:12:17;99554.44;;;18.26;32.43
43119;BME280;28729;49.838;8.650;2023-04-10T17:16:19;99557.38;;;18.02;32.97
43119;BME280;28729;49.838;8.650;2023-04-10T17:20:21;99548.25;;;17.83;33.15
43119;BME280;28729;49.838;8.650;2023-04-10T17:24:23;99550.13;;;17.68;33.42
43119;BME280;28729;49.838;8.650;2023-04-10T17:28:28;99548.00;;;17.60;33.72
43119;BME280;28729;49.838;8.650;2023-04-10T17:32:30;99532.28;;;17.50;34.40
43119;BME280;28729;49.838;8.650;2023-04-10T17:36:32;99530.56;;;17.36;35.08
43119;BME280;28729;49.838;8.650;2023-04-10T17:40:36;99513.63;;;17.13;35.68
43119;BME280;28729;49.838;8.650;2023-04-10T17:44:38;99513.69;;;16.89;36.26
43119;BME280;28729;49.838;8.650;2023-04-10T17:48:41;99524.75;;;16.70;36.74
43119;BME280;28729;49.838;8.650;2023-04-10T17:52:44;99523.34;;;16.49;37.39
43119;BME280;28729;49.838;8.650;2023-04-10T17:56:46;99523.59;;;16.28;38.02
43119;BME280;28729;49.838;8.650;2023-04-10T18:00:54;99516.00;;;16.10;38.37
43119;BME280;28729;49.838;8.650;2023-04-10T18:04:57;99510.09;;;15.87;39.31
43119;BME280;28729;49.838;8.650;2023-04-10T18:09:02;99498.88;;;15.68;39.00
43119;BME280;28729;49.838;8.650;2023-04-10T18:13:07;99514.75;;;15.58;39.06
43119;BME280;28729;49.838;8.650;2023-04-10T18:17:09;99529.25;;;15.49;39.04
43119;BME280;28729;49.838;8.650;2023-04-10T18:21:14;99547.94;;;15.44;39.42
43119;BME280;28729;49.838;8.650;2023-04-10T18:25:16;99551.56;;;15.39;38.94
43119;BME280;28729;49.838;8.650;2023-04-10T18:29:18;99534.09;;;15.39;39.08
43119;BME280;28729;49.838;8.650;2023-04-10T18:33:24;99514.09;;;15.37;39.37
43119;BME280;28729;49.838;8.650;2023-04-10T18:37:26;99514.91;;;15.37;39.46
43119;BME280;28729;49.838;8.650;2023-04-10T18:41:30;99521.03;;;15.39;39.07
43119;BME280;28729;49.838;8.650;2023-04-10T18:45:32;99505.75;;;15.42;39.29
43119;BME280;28729;49.838;8.650;2023-04-10T18:49:35;99522.09;;;15.43;39.30
43119;BME280;28729;49.838;8.650;2023-04-10T18:53:38;99515.19;;;15.41;39.58
43119;BME280;28729;49.838;8.650;2023-04-10T18:57:41;99514.66;;;15.39;39.41
43119;BME280;28729;49.838;8.650;2023-04-10T19:01:43;99529.34;;;15.39;39.54
43119;BME280;28729;49.838;8.650;2023-04-10T19:05:45;99542.66;;;15.42;39.51
43119;BME280;28729;49.838;8.650;2023-04-10T19:09:48;99535.97;;;15.43;39.60
43119;BME280;28729;49.838;8.650;2023-04-10T19:13:50;99527.13;;;15.41;40.15
43119;BME280;28729;49.838;8.650;2023-04-10T19:17:53;99505.19;;;15.40;40.06
43119;BME280;28729;49.838;8.650;2023-04-10T19:21:56;99519.31;;;15.43;40.02
43119;BME280;28729;49.838;8.650;2023-04-10T19:25:58;99528.78;;;15.42;40.45
43119;BME280;28729;49.838;8.650;2023-04-10T19:30:01;99526.53;;;15.44;40.46
43119;BME280;28729;49.838;8.650;2023-04-10T19:34:07;99518.25;;;15.39;41.12
43119;BME280;28729;49.838;8.650;2023-04-10T19:38:11;99515.47;;;15.39;41.41
43119;BME280;28729;49.838;8.650;2023-04-10T19:42:13;99503.53;;;15.39;41.72
43119;BME280;28729;49.838;8.650;2023-04-10T19:46:19;99506.31;;;15.39;41.86
43119;BME280;28729;49.838;8.650;2023-04-10T19:50:22;99503.00;;;15.37;42.29
43119;BME280;28729;49.838;8.650;2023-04-10T19:54:24;99496.34;;;15.38;42.15
43119;BME280;28729;49.838;8.650;2023-04-10T19:58:29;99496.03;;;15.39;42.27
43119;BME280;28729;49.838;8.650;2023-04-10T20:02:36;99488.00;;;15.38;42.71
43119;BME280;28729;49.838;8.650;2023-04-10T20:06:38;99468.84;;;15.36;43.36
43119;BME280;28729;49.838;8.650;2023-04-10T20:10:42;99445.81;;;15.36;43.84
43119;BME280;28729;49.838;8.650;2023-04-10T20:14:43;99423.59;;;15.36;43.62
43119;BME280;28729;49.838;8.650;2023-04-10T20:18:45;99418.06;;;15.36;43.80
43119;BME280;28729;49.838;8.650;2023-04-10T20:22:47;99403.63;;;15.34;44.29
43119;BME280;28729;49.838;8.650;2023-04-10T20:26:49;99405.81;;;15.37;44.61
43119;BME280;28729;49.838;8.650;2023-04-10T20:30:50;99415.56;;;15.34;45.69
43119;BME280;28729;49.838;8.650;2023-04-10T20:34:52;99418.28;;;15.39;46.20
43119;BME280;28729;49.838;8.650;2023-04-10T20:38:54;99402.22;;;15.36;46.38
43119;BME280;28729;49.838;8.650;2023-04-10T20:42:56;99400.06;;;15.28;47.25
43119;BME280;28729;49.838;8.650;2023-04-10T20:46:58;99388.97;;;15.28;46.95
43119;BME280;28729;49.838;8.650;2023-04-10T20:51:00;99390.38;;;15.25;47.18
43119;BME280;28729;49.838;8.650;2023-04-10T20:55:04;99397.34;;;15.23;47.37
43119;BME280;28729;49.838;8.650;2023-04-10T20:59:06;99395.69;;;15.22;47.60
43119;BME280;28729;49.838;8.650;2023-04-10T21:03:07;99409.88;;;15.20;48.09
43119;BME280;28729;49.838;8.650;2023-04-10T21:07:10;99407.38;;;15.19;48.47
43119;BME280;28729;49.838;8.650;2023-04-10T21:11:11;99404.59;;;15.19;48.20
43119;BME280;28729;49.838;8.650;2023-04-10T21:15:14;99404.03;;;15.17;48.46
43119;BME280;28729;49.838;8.650;2023-04-10T21:19:16;99380.19;;;15.16;49.06
43119;BME280;28729;49.838;8.650;2023-04-10T21:23:18;99357.44;;;15.14;49.62
43119;BME280;28729;49.838;8.650;2023-04-10T21:27:19;99339.72;;;15.10;49.76
43119;BME280;28729;49.838;8.650;2023-04-10T21:31:21;99350.28;;;15.08;49.64
43119;BME280;28729;49.838;8.650;2023-04-10T21:35:23;99352.28;;;15.02;50.55
43119;BME280;28729;49.838;8.650;2023-04-10T21:39:25;99345.63;;;15.03;50.62
43119;BME280;28729;49.838;8.650;2023-04-10T21:43:27;99330.94;;;15.02;50.63
43119;BME280;28729;49.838;8.650;2023-04-10T21:47:29;99256.91;;;14.93;51.50
43119;BME280;28729;49.838;8.650;2023-04-10T21:51:31;99278.28;;;14.92;51.53
43119;BME280;28729;49.838;8.650;2023-04-10T21:55:33;99284.16;;;14.91;51.64
43119;BME280;28729;49.838;8.650;2023-04-10T21:59:35;99286.34;;;14.94;51.63
43119;BME280;28729;49.838;8.650;2023-04-10T22:03:37;99298.00;;;14.91;52.20